createdAt,value
2018-01-18T00:00:16.791Z,997.48
2018-01-18T00:01:16.773Z,997.53
2018-01-18T00:02:16.752Z,997.50
2018-01-18T00:03:16.729Z,997.56
2018-01-18T00:04:16.702Z,997.46
2018-01-18T00:05:16.680Z,997.46
2018-01-18T00:06:16.664Z,997.50
2018-01-18T00:07:16.644Z,997.48
2018-01-18T00:08:16.614Z,997.52
2018-01-18T00:09:16.591Z,997.45
2018-01-18T00:10:16.572Z,997.43
2018-01-18T00:11:16.546Z,997.46
2018-01-18T00:12:16.520Z,997.45
2018-01-18T00:13:16.501Z,997.40
2018-01-18T00:14:16.480Z,997.41
2018-01-18T00:15:16.454Z,997.40
2018-01-18T00:16:16.429Z,997.36
2018-01-18T00:17:16.410Z,997.36
2018-01-18T00:18:16.389Z,997.32
2018-01-18T00:19:16.369Z,997.32
2018-01-18T00:20:16.340Z,997.19
2018-01-18T00:21:16.319Z,997.24
2018-01-18T00:22:16.297Z,997.20
2018-01-18T00:23:16.281Z,997.18
2018-01-18T00:24:16.250Z,997.11
2018-01-18T00:25:16.230Z,997.12
2018-01-18T00:26:16.211Z,997.08
2018-01-18T00:27:16.195Z,997.13
2018-01-18T00:28:16.165Z,997.10
2018-01-18T00:29:16.140Z,997.09
2018-01-18T00:30:16.123Z,997.11
2018-01-18T00:31:16.098Z,997.11
2018-01-18T00:32:16.078Z,997.07
2018-01-18T00:33:16.070Z,997.03
2018-01-18T00:34:16.029Z,997.02
2018-01-18T00:35:16.030Z,997.01
2018-01-18T00:36:15.985Z,996.93
2018-01-18T00:37:15.966Z,996.91
2018-01-18T00:38:15.939Z,996.89
2018-01-18T00:39:15.931Z,996.89
2018-01-18T00:40:15.898Z,996.90
2018-01-18T00:41:15.971Z,996.90
2018-01-18T00:42:15.850Z,996.82
2018-01-18T00:43:15.830Z,996.81
2018-01-18T00:44:15.813Z,996.76
2018-01-18T00:45:15.789Z,996.75
2018-01-18T00:46:15.760Z,996.73
2018-01-18T00:47:15.787Z,996.67
2018-01-18T00:48:15.720Z,996.64
2018-01-18T00:49:15.764Z,996.68
2018-01-18T00:50:15.679Z,996.66
2018-01-18T00:51:15.664Z,996.61
2018-01-18T00:52:15.630Z,996.56
2018-01-18T00:53:15.731Z,996.57
2018-01-18T00:54:15.586Z,996.51
2018-01-18T00:55:15.571Z,996.59
2018-01-18T00:56:15.539Z,996.49
2018-01-18T00:57:15.620Z,996.52
2018-01-18T00:58:15.497Z,996.61
2018-01-18T00:59:15.483Z,996.46
2018-01-18T01:00:15.448Z,996.47
2018-01-18T01:01:15.430Z,996.41
2018-01-18T01:02:15.407Z,996.42
2018-01-18T01:03:15.383Z,996.39
2018-01-18T01:04:15.361Z,996.43
2018-01-18T01:05:15.339Z,996.39
2018-01-18T01:06:15.321Z,996.34
2018-01-18T01:07:15.293Z,996.29
2018-01-18T01:08:15.268Z,996.29
2018-01-18T01:09:15.249Z,996.30
2018-01-18T01:10:15.229Z,996.25
2018-01-18T01:11:15.203Z,996.26
2018-01-18T01:12:15.179Z,996.29
2018-01-18T01:13:15.160Z,996.27
2018-01-18T01:14:15.140Z,996.26
2018-01-18T01:15:15.120Z,996.23
2018-01-18T01:16:15.089Z,996.23
2018-01-18T01:17:15.069Z,996.20
2018-01-18T01:18:15.044Z,996.25
2018-01-18T01:19:15.025Z,996.13
2018-01-18T01:20:15.002Z,996.06
2018-01-18T01:21:14.980Z,995.98
2018-01-18T01:22:14.963Z,995.96
2018-01-18T01:23:14.940Z,995.95
2018-01-18T01:24:14.912Z,995.93
2018-01-18T01:25:14.889Z,996.00
2018-01-18T01:26:14.869Z,995.96
2018-01-18T01:27:14.845Z,995.92
2018-01-18T01:28:14.823Z,995.88
2018-01-18T01:29:14.801Z,995.89
2018-01-18T01:30:14.779Z,995.81
2018-01-18T01:31:14.762Z,995.80
2018-01-18T01:32:14.739Z,995.85
2018-01-18T01:33:14.713Z,995.72
2018-01-18T01:34:14.690Z,995.76
2018-01-18T01:35:14.670Z,995.71
2018-01-18T01:36:14.650Z,995.75
2018-01-18T01:37:14.630Z,995.72
2018-01-18T01:38:14.599Z,995.59
2018-01-18T01:39:14.581Z,995.52
2018-01-18T01:40:14.559Z,995.47
2018-01-18T01:41:14.544Z,995.54
2018-01-18T01:42:14.515Z,995.53
2018-01-18T01:43:14.491Z,995.46
2018-01-18T01:44:14.480Z,995.39
2018-01-18T01:45:14.450Z,995.42
2018-01-18T01:46:14.427Z,995.47
2018-01-18T01:47:14.407Z,995.40
2018-01-18T01:48:14.382Z,995.36
2018-01-18T01:49:14.359Z,995.34
2018-01-18T01:50:14.341Z,995.40
2018-01-18T01:51:14.317Z,995.34
2018-01-18T01:52:14.293Z,995.40
2018-01-18T01:53:14.270Z,995.36
2018-01-18T01:54:14.247Z,995.41
2018-01-18T01:55:14.231Z,995.39
2018-01-18T01:56:14.205Z,995.29
2018-01-18T01:57:14.208Z,995.29
2018-01-18T01:58:14.158Z,995.23
2018-01-18T01:59:14.135Z,995.15
2018-01-18T02:00:14.119Z,995.13
2018-01-18T02:01:14.102Z,995.07
2018-01-18T02:02:14.073Z,995.03
2018-01-18T02:03:14.050Z,994.99
2018-01-18T02:04:14.023Z,994.95
2018-01-18T02:05:14.008Z,994.91
2018-01-18T02:06:13.981Z,994.87
2018-01-18T02:07:13.956Z,994.84
2018-01-18T02:08:13.935Z,994.91
2018-01-18T02:09:13.922Z,994.85
2018-01-18T02:10:13.901Z,994.88
2018-01-18T02:11:13.869Z,994.84
2018-01-18T02:12:13.853Z,994.78
2018-01-18T02:13:13.831Z,994.76
2018-01-18T02:14:13.803Z,994.74
2018-01-18T02:15:13.779Z,994.70
2018-01-18T02:16:13.760Z,994.66
2018-01-18T02:17:13.744Z,994.66
2018-01-18T02:18:13.713Z,994.64
2018-01-18T02:19:13.690Z,994.61
2018-01-18T02:20:13.669Z,994.52
2018-01-18T02:21:13.648Z,994.53
2018-01-18T02:22:13.625Z,994.46
2018-01-18T02:23:13.601Z,994.47
2018-01-18T02:24:13.590Z,994.43
2018-01-18T02:25:13.560Z,994.38
2018-01-18T02:26:13.535Z,994.30
2018-01-18T02:27:13.519Z,994.34
2018-01-18T02:28:13.504Z,994.27
2018-01-18T02:29:13.469Z,994.27
2018-01-18T02:30:13.446Z,994.14
2018-01-18T02:31:13.426Z,994.08
2018-01-18T02:32:13.410Z,994.07
2018-01-18T02:33:13.380Z,994.03
2018-01-18T02:34:13.357Z,994.03
2018-01-18T02:35:13.340Z,993.96
2018-01-18T02:36:13.321Z,994.03
2018-01-18T02:37:13.297Z,993.90
2018-01-18T02:38:13.270Z,993.87
2018-01-18T02:39:13.251Z,993.85
2018-01-18T02:40:13.228Z,993.83
2018-01-18T02:41:13.204Z,993.83
2018-01-18T02:42:13.181Z,993.77
2018-01-18T02:43:13.161Z,993.80
2018-01-18T02:44:13.138Z,993.77
2018-01-18T02:45:13.113Z,993.69
2018-01-18T02:46:13.096Z,993.61
2018-01-18T02:47:13.073Z,993.61
2018-01-18T02:48:13.048Z,993.52
2018-01-18T02:49:13.031Z,993.53
2018-01-18T02:50:13.005Z,993.48
2018-01-18T02:51:12.981Z,993.43
2018-01-18T02:52:12.960Z,993.50
2018-01-18T02:53:12.951Z,993.42
2018-01-18T02:54:12.916Z,993.37
2018-01-18T02:55:12.899Z,993.34
2018-01-18T02:56:12.873Z,993.35
2018-01-18T02:57:12.848Z,993.34
2018-01-18T02:58:12.824Z,993.27
2018-01-18T02:59:12.808Z,993.35
2018-01-18T03:00:12.778Z,993.31
2018-01-18T03:01:12.760Z,993.25
2018-01-18T03:02:12.740Z,993.25
2018-01-18T03:03:12.715Z,993.29
2018-01-18T03:04:12.689Z,993.27
2018-01-18T03:05:12.667Z,993.33
2018-01-18T03:06:12.649Z,993.29
2018-01-18T03:07:12.623Z,993.34
2018-01-18T03:08:12.648Z,993.32
2018-01-18T03:09:12.579Z,993.35
2018-01-18T03:10:12.604Z,993.18
2018-01-18T03:11:12.533Z,993.08
2018-01-18T03:12:12.550Z,993.04
2018-01-18T03:13:12.489Z,992.99
2018-01-18T03:14:12.566Z,993.02
2018-01-18T03:15:12.444Z,993.05
2018-01-18T03:16:12.490Z,993.01
2018-01-18T03:17:12.399Z,993.00
2018-01-18T03:18:12.381Z,992.89
2018-01-18T03:19:12.355Z,992.82
2018-01-18T03:20:12.376Z,992.74
2018-01-18T03:21:12.313Z,992.71
2018-01-18T03:22:12.389Z,992.63
2018-01-18T03:23:12.268Z,992.61
2018-01-18T03:24:12.349Z,992.52
2018-01-18T03:25:12.229Z,992.49
2018-01-18T03:26:12.308Z,992.38
2018-01-18T03:27:12.179Z,992.40
2018-01-18T03:28:12.163Z,992.32
2018-01-18T03:29:12.136Z,992.26
2018-01-18T03:30:12.121Z,992.18
2018-01-18T03:31:12.092Z,992.15
2018-01-18T03:32:12.220Z,992.09
2018-01-18T03:33:12.045Z,992.04
2018-01-18T03:34:12.116Z,992.08
2018-01-18T03:35:12.011Z,992.01
2018-01-18T03:36:11.983Z,991.93
2018-01-18T03:37:11.957Z,991.90
2018-01-18T03:38:12.064Z,991.92
2018-01-18T03:39:11.915Z,991.79
2018-01-18T03:40:11.903Z,991.83
2018-01-18T03:41:11.871Z,991.72
2018-01-18T03:42:11.856Z,991.75
2018-01-18T03:43:11.824Z,991.68
2018-01-18T03:44:11.854Z,991.65
2018-01-18T03:45:11.780Z,991.64
2018-01-18T03:46:11.760Z,991.67
2018-01-18T03:47:11.739Z,991.65
2018-01-18T03:48:11.719Z,991.56
2018-01-18T03:49:11.691Z,991.55
2018-01-18T03:50:11.669Z,991.41
2018-01-18T03:51:11.649Z,991.40
2018-01-18T03:52:11.629Z,991.30
2018-01-18T03:53:11.601Z,991.23
2018-01-18T03:54:11.579Z,991.25
2018-01-18T03:55:11.564Z,991.13
2018-01-18T03:56:11.535Z,991.16
2018-01-18T03:57:11.522Z,991.06
2018-01-18T03:58:11.501Z,991.06
2018-01-18T03:59:11.471Z,991.00
2018-01-18T04:00:11.446Z,990.95
2018-01-18T04:01:11.429Z,990.87
2018-01-18T04:02:11.410Z,990.78
2018-01-18T04:03:11.381Z,990.64
2018-01-18T04:04:11.361Z,990.61
2018-01-18T04:05:11.342Z,990.61
2018-01-18T04:06:11.315Z,990.43
2018-01-18T04:07:11.291Z,990.46
2018-01-18T04:08:11.269Z,990.49
2018-01-18T04:09:11.250Z,990.36
2018-01-18T04:10:11.229Z,990.31
2018-01-18T04:11:11.209Z,990.23
2018-01-18T04:12:11.179Z,990.11
2018-01-18T04:13:11.163Z,990.13
2018-01-18T04:14:11.138Z,990.04
2018-01-18T04:15:11.116Z,989.98
2018-01-18T04:16:11.093Z,989.92
2018-01-18T04:17:11.071Z,989.86
2018-01-18T04:18:11.049Z,989.92
2018-01-18T04:19:11.029Z,989.84
2018-01-18T04:20:11.006Z,989.76
2018-01-18T04:21:10.983Z,989.84
2018-01-18T04:22:10.961Z,989.65
2018-01-18T04:23:10.938Z,989.64
2018-01-18T04:24:10.919Z,989.51
2018-01-18T04:25:10.896Z,989.56
2018-01-18T04:26:10.878Z,989.42
2018-01-18T04:27:10.847Z,989.32
2018-01-18T04:28:10.825Z,989.36
2018-01-18T04:29:10.805Z,989.27
2018-01-18T04:30:10.788Z,989.20
2018-01-18T04:31:10.766Z,989.13
2018-01-18T04:32:10.739Z,989.08
2018-01-18T04:33:10.713Z,988.96
2018-01-18T04:34:10.704Z,988.88
2018-01-18T04:35:10.674Z,988.81
2018-01-18T04:36:10.648Z,988.69
2018-01-18T04:37:10.629Z,988.62
2018-01-18T04:38:10.606Z,988.56
2018-01-18T04:39:10.581Z,988.46
2018-01-18T04:40:10.558Z,988.35
2018-01-18T04:41:10.538Z,988.34
2018-01-18T04:42:10.512Z,988.33
2018-01-18T04:43:10.491Z,988.28
2018-01-18T04:44:10.469Z,988.18
2018-01-18T04:45:10.450Z,988.08
2018-01-18T04:46:10.427Z,988.02
2018-01-18T04:47:10.409Z,988.01
2018-01-18T04:48:10.379Z,987.98
2018-01-18T04:49:10.355Z,987.85
2018-01-18T04:50:10.341Z,987.77
2018-01-18T04:51:10.318Z,987.76
2018-01-18T04:52:10.290Z,987.70
2018-01-18T04:53:10.270Z,987.61
2018-01-18T04:54:10.244Z,987.49
2018-01-18T04:55:10.228Z,987.51
2018-01-18T04:56:10.199Z,987.41
2018-01-18T04:57:10.182Z,987.36
2018-01-18T04:58:10.157Z,987.31
2018-01-18T04:59:10.133Z,987.27
2018-01-18T05:00:10.110Z,987.22
2018-01-18T05:01:10.089Z,987.20
2018-01-18T05:02:10.069Z,987.11
2018-01-18T05:03:10.044Z,987.02
2018-01-18T05:04:10.019Z,986.99
2018-01-18T05:05:09.997Z,986.88
2018-01-18T05:06:09.977Z,986.79
2018-01-18T05:07:09.958Z,986.81
2018-01-18T05:08:09.930Z,986.79
2018-01-18T05:09:09.913Z,986.75
2018-01-18T05:10:09.891Z,986.75
2018-01-18T05:11:09.869Z,986.69
2018-01-18T05:12:09.839Z,986.62
2018-01-18T05:13:09.814Z,986.56
2018-01-18T05:14:09.801Z,986.45
2018-01-18T05:15:09.778Z,986.35
2018-01-18T05:16:09.753Z,986.41
2018-01-18T05:17:09.725Z,986.32
2018-01-18T05:18:09.709Z,986.31
2018-01-18T05:19:09.685Z,986.19
2018-01-18T05:20:09.661Z,986.08
2018-01-18T05:21:09.641Z,986.03
2018-01-18T05:22:09.621Z,985.97
2018-01-18T05:23:09.591Z,985.81
2018-01-18T05:24:09.569Z,985.79
2018-01-18T05:25:09.545Z,985.57
2018-01-18T05:26:09.527Z,985.56
2018-01-18T05:27:09.504Z,985.55
2018-01-18T05:28:09.488Z,985.53
2018-01-18T05:29:09.455Z,985.47
2018-01-18T05:30:09.437Z,985.37
2018-01-18T05:31:09.417Z,985.38
2018-01-18T05:32:09.396Z,985.32
2018-01-18T05:33:09.371Z,985.29
2018-01-18T05:34:09.344Z,985.24
2018-01-18T05:35:09.315Z,985.13
2018-01-18T05:36:09.293Z,985.13
2018-01-18T05:37:09.268Z,985.14
2018-01-18T05:38:09.249Z,985.22
2018-01-18T05:39:09.227Z,985.39
2018-01-18T05:40:09.204Z,985.24
2018-01-18T05:41:09.224Z,985.13
2018-01-18T05:42:09.153Z,985.06
2018-01-18T05:43:09.180Z,984.95
2018-01-18T05:44:09.114Z,984.87
2018-01-18T05:45:09.087Z,984.67
2018-01-18T05:46:09.064Z,984.69
2018-01-18T05:47:09.107Z,984.39
2018-01-18T05:48:09.063Z,984.37
2018-01-18T05:49:09.110Z,984.40
2018-01-18T05:50:08.983Z,984.36
2018-01-18T05:51:09.101Z,984.44
2018-01-18T05:52:08.930Z,984.38
2018-01-18T05:53:08.957Z,984.29
2018-01-18T05:54:08.879Z,984.12
2018-01-18T05:55:08.856Z,984.20
2018-01-18T05:56:08.834Z,984.27
2018-01-18T05:57:08.814Z,984.10
2018-01-18T05:58:08.788Z,984.03
2018-01-18T05:59:08.768Z,983.99
2018-01-18T06:00:08.742Z,983.85
2018-01-18T06:01:08.775Z,983.80
2018-01-18T06:02:08.695Z,983.71
2018-01-18T06:03:08.676Z,983.71
2018-01-18T06:04:08.647Z,983.67
2018-01-18T06:05:08.655Z,983.82
2018-01-18T06:06:08.617Z,983.58
2018-01-18T06:07:08.585Z,983.53
2018-01-18T06:08:08.559Z,983.43
2018-01-18T06:09:08.543Z,983.37
2018-01-18T06:10:08.511Z,983.33
2018-01-18T06:11:08.500Z,983.24
2018-01-18T06:12:08.470Z,983.26
2018-01-18T06:13:08.443Z,983.08
2018-01-18T06:14:08.421Z,983.02
2018-01-18T06:15:08.396Z,982.92
2018-01-18T06:16:08.379Z,982.81
2018-01-18T06:17:08.349Z,982.75
2018-01-18T06:18:08.330Z,982.69
2018-01-18T06:19:08.311Z,982.66
2018-01-18T06:20:08.287Z,982.68
2018-01-18T06:21:08.263Z,982.52
2018-01-18T06:22:08.239Z,982.43
2018-01-18T06:23:08.224Z,982.38
2018-01-18T06:24:08.197Z,982.44
2018-01-18T06:25:08.179Z,982.38
2018-01-18T06:26:08.148Z,982.30
2018-01-18T06:27:08.120Z,982.34
2018-01-18T06:28:08.100Z,982.37
2018-01-18T06:29:08.084Z,982.29
2018-01-18T06:30:08.060Z,982.28
2018-01-18T06:31:08.035Z,982.22
2018-01-18T06:32:08.009Z,982.06
2018-01-18T06:33:07.985Z,982.14
2018-01-18T06:34:07.966Z,982.05
2018-01-18T06:35:07.952Z,982.01
2018-01-18T06:36:07.918Z,982.15
2018-01-18T06:37:07.898Z,981.62
2018-01-18T06:38:07.881Z,981.69
2018-01-18T06:39:07.849Z,981.69
2018-01-18T06:40:07.829Z,981.45
2018-01-18T06:41:07.803Z,981.63
2018-01-18T06:42:07.780Z,981.69
2018-01-18T06:43:07.758Z,981.63
2018-01-18T06:44:07.732Z,981.67
2018-01-18T06:45:07.708Z,981.58
2018-01-18T06:46:07.689Z,981.48
2018-01-18T06:47:07.669Z,981.57
2018-01-18T06:48:07.742Z,981.57
2018-01-18T06:49:07.621Z,981.51
2018-01-18T06:50:07.599Z,981.43
2018-01-18T06:51:07.580Z,981.38
2018-01-18T06:52:07.552Z,981.24
2018-01-18T06:53:07.526Z,981.36
2018-01-18T06:54:07.520Z,981.33
2018-01-18T06:55:07.488Z,981.26
2018-01-18T06:56:07.456Z,981.27
2018-01-18T06:57:07.435Z,981.27
2018-01-18T06:58:07.413Z,981.17
2018-01-18T06:59:07.393Z,981.25
2018-01-18T07:00:07.382Z,981.01
2018-01-18T07:01:07.344Z,980.97
2018-01-18T07:02:07.322Z,980.91
2018-01-18T07:03:07.309Z,980.82
2018-01-18T07:04:07.277Z,980.82
2018-01-18T07:05:07.259Z,980.74
2018-01-18T07:06:07.255Z,980.73
2018-01-18T07:07:07.211Z,980.69
2018-01-18T07:08:07.189Z,980.78
2018-01-18T07:09:07.165Z,980.63
2018-01-18T07:10:07.144Z,980.55
2018-01-18T07:11:07.124Z,980.57
2018-01-18T07:12:07.105Z,980.52
2018-01-18T07:13:07.076Z,980.43
2018-01-18T07:14:07.060Z,980.49
2018-01-18T07:15:07.039Z,980.37
2018-01-18T07:16:07.009Z,980.33
2018-01-18T07:17:06.990Z,980.31
2018-01-18T07:18:06.968Z,980.25
2018-01-18T07:19:06.942Z,980.14
2018-01-18T07:20:06.919Z,979.97
2018-01-18T07:21:06.896Z,979.97
2018-01-18T07:22:06.875Z,979.84
2018-01-18T07:23:06.860Z,979.84
2018-01-18T07:24:06.828Z,979.89
2018-01-18T07:25:06.810Z,979.94
2018-01-18T07:26:06.784Z,979.90
2018-01-18T07:27:06.767Z,979.84
2018-01-18T07:28:06.738Z,979.71
2018-01-18T07:29:06.720Z,979.66
2018-01-18T07:30:06.699Z,979.46
2018-01-18T07:31:06.679Z,979.64
2018-01-18T07:32:06.650Z,979.63
2018-01-18T07:33:06.632Z,979.76
2018-01-18T07:34:06.619Z,979.61
2018-01-18T07:35:06.586Z,979.79
2018-01-18T07:36:06.561Z,979.74
2018-01-18T07:37:06.540Z,979.54
2018-01-18T07:38:06.530Z,979.73
2018-01-18T07:39:06.508Z,979.40
2018-01-18T07:40:06.479Z,979.46
2018-01-18T07:41:06.453Z,979.56
2018-01-18T07:42:06.434Z,979.48
2018-01-18T07:43:06.410Z,979.36
2018-01-18T07:44:06.389Z,979.23
2018-01-18T07:45:06.366Z,979.40
2018-01-18T07:46:06.351Z,979.16
2018-01-18T07:47:06.330Z,979.19
2018-01-18T07:48:06.296Z,979.26
2018-01-18T07:49:06.280Z,979.26
2018-01-18T07:50:06.259Z,979.28
2018-01-18T07:51:06.240Z,979.13
2018-01-18T07:52:06.213Z,979.12
2018-01-18T07:53:06.189Z,979.16
2018-01-18T07:54:06.169Z,979.04
2018-01-18T07:55:06.148Z,979.08
2018-01-18T07:56:06.127Z,978.91
2018-01-18T07:57:06.104Z,978.95
2018-01-18T07:58:06.082Z,978.85
2018-01-18T07:59:06.064Z,978.81
2018-01-18T08:00:06.040Z,978.82
2018-01-18T08:01:06.022Z,978.80
2018-01-18T08:02:06.000Z,978.74
2018-01-18T08:03:05.977Z,978.83
2018-01-18T08:04:06.006Z,978.76
2018-01-18T08:05:05.944Z,978.77
2018-01-18T08:06:05.912Z,978.73
2018-01-18T08:07:05.890Z,978.88
2018-01-18T08:08:05.871Z,978.74
2018-01-18T08:09:05.853Z,978.73
2018-01-18T08:10:05.833Z,978.68
2018-01-18T08:11:05.802Z,978.49
2018-01-18T08:12:05.840Z,978.64
2018-01-18T08:13:05.761Z,978.49
2018-01-18T08:14:05.791Z,978.63
2018-01-18T08:15:05.720Z,978.50
2018-01-18T08:16:05.859Z,978.39
2018-01-18T08:17:05.679Z,978.40
2018-01-18T08:18:05.807Z,978.19
2018-01-18T08:19:05.635Z,978.31
2018-01-18T08:20:05.720Z,978.16
2018-01-18T08:21:05.590Z,978.30
2018-01-18T08:22:05.571Z,978.32
2018-01-18T08:23:05.552Z,978.66
2018-01-18T08:24:05.530Z,978.35
2018-01-18T08:25:05.509Z,978.17
2018-01-18T08:26:05.641Z,978.06
2018-01-18T08:27:05.470Z,977.86
2018-01-18T08:28:05.536Z,978.26
2018-01-18T08:29:05.429Z,978.15
2018-01-18T08:30:05.491Z,978.21
2018-01-18T08:31:05.393Z,978.06
2018-01-18T08:32:05.369Z,978.19
2018-01-18T08:33:05.339Z,978.25
2018-01-18T08:34:05.321Z,978.24
2018-01-18T08:35:05.299Z,978.06
2018-01-18T08:36:05.383Z,978.32
2018-01-18T08:37:05.257Z,978.26
2018-01-18T08:38:05.364Z,978.36
2018-01-18T08:39:05.218Z,978.12
2018-01-18T08:40:05.309Z,978.13
2018-01-18T08:41:05.177Z,978.52
2018-01-18T08:42:05.155Z,978.39
2018-01-18T08:43:05.138Z,978.38
2018-01-18T08:44:05.114Z,978.17
2018-01-18T08:45:05.098Z,977.98
2018-01-18T08:46:05.078Z,978.07
2018-01-18T08:47:05.056Z,978.08
2018-01-18T08:48:05.061Z,977.95
2018-01-18T08:49:05.012Z,977.75
2018-01-18T08:50:05.009Z,977.76
2018-01-18T08:51:04.978Z,977.92
2018-01-18T08:52:04.958Z,977.98
2018-01-18T08:53:04.938Z,977.65
2018-01-18T08:54:04.918Z,977.93
2018-01-18T08:55:04.899Z,977.84
2018-01-18T08:56:04.874Z,977.92
2018-01-18T08:57:04.855Z,977.92
2018-01-18T08:58:04.839Z,977.81
2018-01-18T08:59:04.818Z,977.76
2018-01-18T09:00:04.798Z,977.63
2018-01-18T09:01:04.781Z,977.79
2018-01-18T09:02:04.756Z,977.74
2018-01-18T09:03:04.741Z,978.01
2018-01-18T09:04:04.723Z,977.86
2018-01-18T09:05:04.699Z,977.69
2018-01-18T09:06:04.680Z,977.54
2018-01-18T09:07:04.669Z,977.58
2018-01-18T09:08:04.639Z,977.62
2018-01-18T09:09:04.619Z,977.58
2018-01-18T09:10:04.604Z,977.68
2018-01-18T09:11:04.590Z,977.57
2018-01-18T09:12:04.562Z,977.51
2018-01-18T09:13:04.537Z,977.57
2018-01-18T09:14:04.518Z,977.58
2018-01-18T09:15:04.497Z,977.60
2018-01-18T09:16:04.476Z,977.57
2018-01-18T09:17:04.453Z,977.38
2018-01-18T09:18:04.440Z,977.31
2018-01-18T09:19:04.418Z,977.29
2018-01-18T09:20:04.392Z,977.03
2018-01-18T09:21:04.371Z,977.32
2018-01-18T09:22:04.603Z,977.35
2018-01-18T09:23:04.335Z,977.38
2018-01-18T09:24:04.320Z,977.63
2018-01-18T09:25:04.296Z,977.25
2018-01-18T09:26:04.273Z,977.06
2018-01-18T09:27:04.253Z,977.36
2018-01-18T09:28:04.290Z,977.34
2018-01-18T09:29:04.217Z,977.30
2018-01-18T09:30:04.195Z,977.38
2018-01-18T09:31:04.174Z,977.29
2018-01-18T09:32:04.160Z,977.33
2018-01-18T09:33:04.138Z,977.48
2018-01-18T09:34:04.169Z,977.51
2018-01-18T09:35:04.091Z,977.41
2018-01-18T09:36:04.075Z,977.67
2018-01-18T09:37:04.056Z,977.72
2018-01-18T09:38:04.038Z,977.54
2018-01-18T09:39:04.026Z,977.52
2018-01-18T09:40:03.992Z,977.20
2018-01-18T09:41:03.977Z,977.49
2018-01-18T09:42:03.956Z,977.66
2018-01-18T09:43:03.938Z,977.75
2018-01-18T09:44:03.915Z,977.50
2018-01-18T09:45:03.901Z,977.66
2018-01-18T09:46:03.877Z,977.70
2018-01-18T09:47:03.859Z,977.50
2018-01-18T09:48:03.840Z,977.59
2018-01-18T09:49:03.818Z,977.74
2018-01-18T09:50:03.802Z,979.05
2018-01-18T09:51:03.783Z,978.04
2018-01-18T09:52:03.764Z,977.86
2018-01-18T09:53:03.744Z,977.92
2018-01-18T09:54:03.734Z,977.83
2018-01-18T09:55:03.707Z,977.73
2018-01-18T09:56:03.694Z,977.72
2018-01-18T09:57:03.669Z,978.34
2018-01-18T09:58:03.659Z,977.65
2018-01-18T09:59:03.634Z,977.88
2018-01-18T10:00:03.619Z,977.79
2018-01-18T10:01:03.604Z,977.78
2018-01-18T10:02:03.580Z,977.76
2018-01-18T10:03:03.560Z,978.00
2018-01-18T10:04:03.534Z,977.68
2018-01-18T10:05:03.520Z,977.72
2018-01-18T10:06:03.500Z,977.81
2018-01-18T10:07:03.484Z,977.88
2018-01-18T10:08:03.468Z,977.58
2018-01-18T10:09:03.447Z,977.36
2018-01-18T10:10:03.418Z,977.58
2018-01-18T10:11:03.414Z,977.19
2018-01-18T10:12:03.380Z,977.46
2018-01-18T10:13:03.359Z,977.53
2018-01-18T10:14:03.336Z,977.36
2018-01-18T10:15:03.317Z,977.42
2018-01-18T10:16:03.294Z,977.74
2018-01-18T10:17:03.280Z,977.06
2018-01-18T10:18:03.259Z,977.30
2018-01-18T10:19:03.238Z,977.61
2018-01-18T10:20:03.221Z,977.67
2018-01-18T10:21:03.200Z,977.86
2018-01-18T10:22:03.183Z,977.67
2018-01-18T10:23:03.156Z,977.60
2018-01-18T10:24:03.155Z,977.44
2018-01-18T10:25:03.144Z,977.67
2018-01-18T10:26:03.111Z,978.17
2018-01-18T10:27:03.081Z,977.16
2018-01-18T10:28:03.058Z,977.64
2018-01-18T10:29:03.038Z,977.45
2018-01-18T10:30:03.014Z,977.67
2018-01-18T10:31:02.996Z,978.25
2018-01-18T10:32:02.969Z,977.53
2018-01-18T10:33:02.958Z,977.41
2018-01-18T10:34:02.934Z,977.47
2018-01-18T10:35:03.019Z,977.43
2018-01-18T10:36:02.888Z,977.20
2018-01-18T10:37:02.869Z,977.46
2018-01-18T10:38:02.849Z,977.46
2018-01-18T10:39:02.834Z,977.44
2018-01-18T10:40:02.809Z,977.35
2018-01-18T10:41:02.788Z,977.32
2018-01-18T10:42:02.771Z,977.48
2018-01-18T10:43:02.750Z,977.75
2018-01-18T10:44:02.725Z,977.61
2018-01-18T10:45:02.709Z,977.43
2018-01-18T10:46:02.686Z,977.99
2018-01-18T10:47:02.675Z,977.53
2018-01-18T10:48:02.642Z,977.52
2018-01-18T10:49:02.628Z,977.91
2018-01-18T10:50:02.611Z,977.85
2018-01-18T10:51:02.583Z,977.66
2018-01-18T10:52:02.563Z,977.67
2018-01-18T10:53:02.539Z,977.19
2018-01-18T10:54:02.519Z,977.59
2018-01-18T10:55:02.513Z,977.97
2018-01-18T10:56:02.489Z,977.80
2018-01-18T10:57:02.457Z,977.67
2018-01-18T10:58:02.442Z,977.66
2018-01-18T10:59:02.417Z,978.04
2018-01-18T11:00:02.400Z,978.22
2018-01-18T11:01:02.379Z,977.88
2018-01-18T11:02:02.362Z,977.92
2018-01-18T11:03:02.331Z,977.36
2018-01-18T11:04:02.314Z,978.12
2018-01-18T11:05:02.297Z,978.34
2018-01-18T11:06:02.269Z,978.90
2018-01-18T11:07:02.251Z,978.01
2018-01-18T11:08:02.229Z,978.04
2018-01-18T11:09:02.211Z,977.95
2018-01-18T11:10:02.189Z,978.44
2018-01-18T11:11:02.172Z,978.46
2018-01-18T11:12:02.141Z,978.87
2018-01-18T11:13:02.121Z,978.32
2018-01-18T11:14:02.110Z,978.49
2018-01-18T11:15:02.130Z,978.42
2018-01-18T11:16:02.063Z,978.47
2018-01-18T11:17:02.041Z,978.83
2018-01-18T11:18:02.019Z,979.11
2018-01-18T11:19:02.004Z,978.54
2018-01-18T11:20:01.976Z,978.89
2018-01-18T11:21:01.960Z,978.96
2018-01-18T11:22:01.940Z,979.38
2018-01-18T11:23:01.924Z,978.88
2018-01-18T11:24:01.891Z,979.26
2018-01-18T11:25:01.871Z,979.48
2018-01-18T11:26:01.851Z,979.42
2018-01-18T11:27:01.829Z,979.35
2018-01-18T11:28:01.809Z,979.53
2018-01-18T11:29:01.796Z,979.73
2018-01-18T11:30:01.761Z,979.72
2018-01-18T11:31:01.741Z,979.58
2018-01-18T11:32:01.717Z,980.10
2018-01-18T11:33:01.701Z,980.08
2018-01-18T11:34:01.680Z,980.39
2018-01-18T11:35:01.661Z,979.86
2018-01-18T11:36:01.632Z,980.36
2018-01-18T11:37:01.620Z,980.11
2018-01-18T11:38:01.592Z,980.42
2018-01-18T11:39:01.572Z,980.61
2018-01-18T11:40:01.571Z,980.63
2018-01-18T11:41:01.528Z,980.95
2018-01-18T11:42:01.511Z,980.62
2018-01-18T11:43:01.495Z,980.63
2018-01-18T11:44:01.469Z,981.10
2018-01-18T11:45:01.458Z,980.74
2018-01-18T11:46:01.431Z,982.02
2018-01-18T11:47:01.407Z,981.23
2018-01-18T11:48:01.384Z,980.77
2018-01-18T11:49:01.361Z,981.55
2018-01-18T11:50:01.341Z,981.48
2018-01-18T11:51:01.320Z,981.68
2018-01-18T11:52:01.307Z,981.11
2018-01-18T11:53:01.277Z,981.91
2018-01-18T11:54:01.257Z,981.81
2018-01-18T11:55:01.254Z,982.12
2018-01-18T11:56:01.266Z,981.95
2018-01-18T11:57:01.196Z,982.09
2018-01-18T11:58:01.177Z,982.04
2018-01-18T11:59:01.161Z,982.13
2018-01-18T12:00:01.142Z,982.04
2018-01-18T12:01:01.120Z,982.46
2018-01-18T12:02:01.090Z,982.37
2018-01-18T12:03:01.071Z,982.72
2018-01-18T12:04:01.049Z,982.51
2018-01-18T12:05:01.030Z,982.88
2018-01-18T12:06:01.008Z,982.80
2018-01-18T12:07:00.991Z,983.44
2018-01-18T12:08:00.969Z,982.94
2018-01-18T12:09:00.944Z,983.10
2018-01-18T12:10:00.931Z,983.16
2018-01-18T12:11:00.906Z,983.20
2018-01-18T12:12:00.892Z,983.23
2018-01-18T12:13:00.870Z,983.11
2018-01-18T12:14:00.867Z,983.59
2018-01-18T12:15:00.830Z,983.62
2018-01-18T12:16:00.808Z,983.50
2018-01-18T12:17:00.783Z,983.87
2018-01-18T12:18:00.761Z,983.58
2018-01-18T12:19:00.751Z,984.27
2018-01-18T12:20:00.724Z,984.20
2018-01-18T12:21:00.700Z,983.91
2018-01-18T12:22:00.681Z,983.91
2018-01-18T12:23:00.660Z,984.42
2018-01-18T12:24:00.652Z,984.42
2018-01-18T12:25:00.628Z,984.38
2018-01-18T12:26:00.599Z,983.89
2018-01-18T12:27:00.581Z,984.68
2018-01-18T12:28:00.569Z,984.73